Terminal Aerodrome Forecast
Issued by NWS

Home | Current Version | Previous Version | Text Only | Print | Product List | Glossary On
Versions: 1 2 3 4 5 6 7 8 9 10 11 12 13 14 15 16 17 18
547
FTUS42 KTAE 251120
TAFVLD
TAF
KVLD 251120Z 2512/2612 19004KT 5SM BR BKN005
      TEMPO 2512/2513 2SM BR OVC002
     FM251400 20007KT P6SM BKN030
     FM260400 19002KT 6SM BR BKN020=

USA.gov is the U.S. government's official web portal to all federal, state and local government web resources and services.